Résultats

Ronde Touloubre : Course 7.4 km. Édition 2019.

7.4 Km
19/05/2019 à 09:45:00 - GRANS (13)
342 arrivant(e)s.





Place▲ Temps Dossard Nom Prenom Categ #Categ Sexe #Sexe Club Vit Moy Diplôme Photo Partager
1 00:26:11 711 AIELLO CHRISTOPHE M1M 1 M 1 ATHLE PROVENCE CLUB 16.96
2 00:26:51 1489 SUROY VINCENT M1M 2 M 2 FSPNFSPN 16.54
3 00:26:54 989 GARVI CLEMENT SEM 1 M 3 BLACK CLOUD RUNNING CLUB 16.51
4 00:27:00 856 JEPPSON PAUL SEM 2 M 4 AIL ROUSSET RUNNING 16.44
5 00:27:14 826 GERARD GUILHEM SEM 3 M 5 TEAM PROVENCE ENDURANCE 16.30
6 00:27:28 992 SAMSON SOLENN CAM 1 M 6 BLACK CLOUD RUNNING CLUB 16.17
7 00:27:29 795 DEVOUX DANIEL SEM 4 M 7 #RUN LANCON 16.16
8 00:27:30 873 LE-DEUNFF THOMAS SEM 5 M 8 R-COACH 16.15
9 00:27:38 1000 SERRAPICA RAPHAEL SEM 6 M 9 ATHLETIC CLUB SALONAIS 16.07
10 00:27:55 1490 NALIN CHRISTOPHE M1M 3 M 10 BOUCHERIE DAME L'YGUIERE 15.90
11 00:28:13 781 COMTAT CYRIL M1M 4 M 11 TEAM PROVENCE ENDURANCE 15.74
12 00:28:23 710 AGUILAR CLEMENT CAM 2 M 12 ATHLETIC CLUB SALONAIS 15.64
13 00:28:37 1500 TRIFFAUT KYLIAN CAM 3 M 13 ATHLETIC CLUB SALONAIS 15.52
14 00:28:38 1483 MORIN ANTHONY SEM 7 M 14 AIX ATHLE PROVENCE 15.51
15 00:28:48 1473 CONDE ERIC M1M 5 M 15 OLYMPIQUE CABRIES CALAS 15.42
16 00:29:26 971 VUILLEMIN JEAN-PHILIPPE M2M 1 M 16 LOKOMOTIV MIRAMAS TRIATHLON 15.08
17 00:29:28 975 TASSY CHRISTOPHE M2M 2 M 17 AC MIRAMAS 15.07
18 00:29:35 837 GRUAIS CEDRIC SEM 8 M 18 15.01
19 00:29:40 823 N:Anonyme 823 P:Anonyme 823 SEM 9 M 19 BLACK CLOUD RUNNING CLUB 14.97
20 00:29:44 958 TAGUEMOUNT KARIM M1M 6 M 20 ATHLETIC BERRE CLUB 14.93
21 00:29:46 921 QUELEN FREDERIC SEM 10 M 21 LANCON BOXE TEAM SACI 14.92
22 00:29:47 1487 FRAIZ CHRISTOPHE M1M 7 M 22 STADIUM CLUB MARIGNANAIS 14.91
23 00:29:49 968 VILLA CEDRIC M1M 8 M 23 AIRBUS HELICOPTERS 14.89
24 00:29:49 731 BARETH JEAN-FRANCOIS M2M 3 M 24 ROGNAC ATHLETIC CLUB 14.89
25 00:29:51 1449 GUIM-VARGAS ANDRES SEM 11 M 25 ATHLETIC CLUB SALONAIS 14.87
26 00:29:57 808 FAIVRE BENJAMIN SEM 12 M 26 #RUN LANCON 14.82
27 00:30:12 1479 EL-ALONI KALED M2M 4 M 27 14.70
28 00:30:22 748 BONNEL FREDDY M1M 9 M 28 PELICAN ATHLETISME 14.62
29 00:30:29 834 GRANOUX JULIEN SEM 13 M 29 14.57
30 00:30:30 793 DERBANE CEDRIC M1M 10 M 30 14.56
31 00:30:31 884 LOUBET FREDERIC M1M 11 M 31 14.55
32 00:30:39 872 LAWSON NICOLAS M1M 12 M 32 SALON TRIATHLON 14.49
33 00:30:47 708 AGOSTI CHRISTOPHE M1M 13 M 33 MPT ISTRES 14.42
34 00:30:51 985 JOUANNY JEAN-LUC M2M 5 M 34 CD13 POLICE NATIONALE 14.39
35 00:30:54 831 GORBAN IRENE SEF 1 F 1 KM 42.195 MARSEILLE 14.37
36 00:30:56 1486 MASAROY BASTIEN SEM 14 M 35 LA VOUTE FITNESS CLUB 14.35
37 00:31:01 847 HEDOU FABRICE SEM 15 M 36 14.31
38 00:31:06 727 BACCAR ERWANN CAM 4 M 37 LA VOUTE FITNESS CLUB 14.28
39 00:31:08 956 STEFANINI MAXIME CAM 5 M 38 COUDOUX OLYMPIQUE 14.26
40 00:31:12 914 PIERRIN CATHY M1F 1 F 2 KEMONE 14.23
41 00:31:17 880 LILLO ERIC M2M 6 M 39 ACP MARSEILLE 14.19
42 00:31:23 941 ROUMIEU NICOLAS M1M 14 M 40 #RUN LANCON 14.15
43 00:31:26 857 JOSUAN GILLES M1M 15 M 41 AC MIRAMAS 14.13
44 00:31:30 706 MEZZALIRA FABRICE M1M 16 M 42 ELAN LAMBESCAIN 14.10
45 00:31:37 842 GUYOT ULYSSE CAM 6 M 43 14.04
46 00:31:48 906 PELLETANT PATRICK M3M 1 M 44 KM 42.195 MARSEILLE 13.96
47 00:32:03 753 BOUQUET BLANDINE SEF 2 F 3 ROGNAC ATHLETIC CLUB 13.85
48 00:32:04 763 CASANOVA LIONEL M1M 17 M 45 13.85
49 00:32:08 825 GAZAN GILLES M1M 18 M 46 13.82
50 00:32:09 948 SEGURA ALAIN M3M 2 M 47 SMAC 13 13.81
51 00:32:18 862 LAFOLIE PIERRE ESM 1 M 48 13.75
52 00:32:30 806 ESCORIHUELA PATRICE M2M 7 M 49 FOULEES PELISSANNAISES 13.66
53 00:32:42 716 N:Anonyme 716 P:Anonyme 716 SEF 3 F 4 13.58
54 00:32:46 888 MANUGUERRA LAURENT M1M 19 M 50 #RUN LANCON 13.55
55 00:32:48 947 SAINQUANTIN PATRICK M2M 8 M 51 AC MIRAMAS 13.54
56 00:32:56 1458 LATRECHE FESSAL M2M 9 M 52 13.48
57 00:33:01 765 CASTELLANI MARCEL M2M 10 M 53 #RUN LANCON 13.45
58 00:33:17 735 BEDENE OLIVIER M1M 20 M 54 LA LANCONNAISE 13.34
59 00:33:28 894 MEYER MARTIN SEM 16 M 55 13.27
60 00:33:33 747 BOITIAUX GUILLAUME SEM 17 M 56 AC MIRAMAS 13.23
61 00:33:36 926 RECH GERALD M2M 11 M 57 FOULEES PELISSANNAISES 13.21
62 00:33:47 760 CALMEIL JEROME M2M 12 M 58 FOULEES PELISSANNAISES 13.14
63 00:33:48 868 LAURENT ANNE-MARIE M2F 1 F 5 VO3 MAX PROVENCE TRIATHLON 13.14
64 00:33:55 866 LATHIERE YOAN SEM 18 M 59 13.09
65 00:33:56 922 RAMIREZ TOMY JUM 1 M 60 13.08
66 00:33:59 732 BARRAU VIRGINIE M1F 2 F 6 #RUN LANCON 13.07
67 00:34:07 1495 PORTES NOA ESM 2 M 61 FOULEES PELISSANNAISES 13.01
68 00:34:09 877 LE-MOEL JEROME SEM 19 M 62 BCO 13.00
69 00:34:16 762 CARBONE PIERRE M3M 3 M 63 LA VOUTE FITNESS CLUB 12.96
70 00:34:19 1477 BALLAND ROMAIN SEM 20 M 64 LA VOUTE FITNESS CLUB 12.94
71 00:34:19 844 HANICHE ALEXANDRE CAM 7 M 65 SALON TRIATHLON 12.94
72 00:34:20 940 ROMERO LIONEL M1M 21 M 66 LIONELCAMILLE 12.93
73 00:34:20 1468 DUCRO GERARD M2M 13 M 67 TEAM MARABOUT 12.93
74 00:34:30 817 FOURNIER FRANCK M1M 22 M 68 ROGNAC ATHLETIC CLUB 12.87
75 00:34:37 931 RICHARD CHRISTOPHE M2M 14 M 69 VITROLLES MULTI SPORT 12.83
76 00:34:37 996 PANTEL PERLE SEF 4 F 7 12.83
77 00:34:39 957 SUAGA JOHAN SEM 21 M 70 12.81
78 00:34:46 1494 VICARI DANIEL M3M 4 M 71 12.77
79 00:34:49 776 CLAVEL FELIX CAM 8 M 72 COUDOUX OLYMPIQUE 12.75
80 00:34:59 822 GARCIA NATHALIE M1F 3 F 8 LA VOUTE FITNESS CLUB 12.69
81 00:35:03 782 CONTINI VICTOR JUM 2 M 73 LA FARE SPORT NATURE 12.67
82 00:35:07 1460 NEYRON LAURINE CAF 1 F 9 FOS OLYMPIQUE CLUB 12.64
83 00:35:12 851 HUGUES ALEXANDRA SEF 5 F 10 SMAC 13 12.61
84 00:35:33 1462 ROYER OLIVIER SEM 22 M 74 12.49
85 00:35:39 977 PERRET JEAN-MICHEL SEM 23 M 75 12.45
86 00:35:40 939 ROGER ANTOINE SEM 24 M 76 12.45
87 00:35:42 1450 ALTOUNTOPIAN REMY JUM 3 M 77 12.44
88 00:35:43 893 MEVEL STEPHANE M3M 5 M 78 FOULEES PELISSANNAISES 12.43
89 00:35:45 1485 AYMES MELANIE SEF 6 F 11 MPT ISTRES 12.42
90 00:35:51 830 GIRARD BRUNO M3M 6 M 79 SMAC 13 12.38
91 00:35:51 728 BAHAT ABBES M2M 15 M 80 SPEEDY CLUB DE PROVENCE 12.38
92 00:35:57 733 BAYO JEREMY SEM 25 M 81 12.35
93 00:35:57 1459 NEYRON DAVID M1M 23 M 82 FOS OLYMPIQUE CLUB 12.35
94 00:35:59 838 GUERIN DEWY SEM 26 M 83 MATEV 12.34
95 00:36:00 907 PELLETIERI DANIEL M2M 16 M 84 12.33
96 00:36:08 721 ARECCHI DENIS M2M 17 M 85 AMICALE DES PENNES MIRABEAU 12.29
97 00:36:09 815 FORNELLA CAROLE M1F 4 F 12 LES FOULEES ROCASSIERES 12.28
98 00:36:15 960 TIRONE PATRICK M2M 18 M 86 12.25
99 00:36:21 1464 STEINER GREGORY SEM 27 M 87 12.21
100 00:36:23 827 GHERRAT SEBASTIEN M1M 24 M 88 12.20